sensor_id;sensor_type;location;lat;lon;timestamp;P1;durP1;ratioP1;P2;durP2;ratioP2
70199;SDS011;57587;55.688;37.600;2022-12-29T00:00:16;4.57;;;2.40;;
70199;SDS011;57587;55.688;37.600;2022-12-29T00:02:44;5.25;;;2.75;;
70199;SDS011;57587;55.688;37.600;2022-12-29T00:05:11;3.13;;;2.40;;
70199;SDS011;57587;55.688;37.600;2022-12-29T00:07:38;4.68;;;2.10;;
70199;SDS011;57587;55.688;37.600;2022-12-29T00:10:05;4.97;;;2.30;;
70199;SDS011;57587;55.688;37.600;2022-12-29T00:12:33;3.63;;;1.95;;
70199;SDS011;57587;55.688;37.600;2022-12-29T00:15:35;4.82;;;2.28;;
70199;SDS011;57587;55.688;37.600;2022-12-29T00:18:06;4.23;;;1.90;;
70199;SDS011;57587;55.688;37.600;2022-12-29T00:20:37;4.05;;;2.08;;
70199;SDS011;57587;55.688;37.600;2022-12-29T00:23:23;4.20;;;2.30;;
70199;SDS011;57587;55.688;37.600;2022-12-29T00:26:11;4.80;;;2.38;;
70199;SDS011;57587;55.688;37.600;2022-12-29T00:29:00;5.18;;;2.47;;
70199;SDS011;57587;55.688;37.600;2022-12-29T00:31:47;4.93;;;2.40;;
70199;SDS011;57587;55.688;37.600;2022-12-29T00:34:32;5.72;;;2.22;;
70199;SDS011;57587;55.688;37.600;2022-12-29T00:37:18;4.72;;;2.40;;
70199;SDS011;57587;55.688;37.600;2022-12-29T00:40:05;5.45;;;2.38;;
70199;SDS011;57587;55.688;37.600;2022-12-29T00:42:51;5.13;;;2.45;;
70199;SDS011;57587;55.688;37.600;2022-12-29T00:45:39;6.27;;;2.50;;
70199;SDS011;57587;55.688;37.600;2022-12-29T00:48:08;8.65;;;2.65;;
70199;SDS011;57587;55.688;37.600;2022-12-29T00:50:35;4.50;;;2.13;;
70199;SDS011;57587;55.688;37.600;2022-12-29T00:53:02;7.47;;;2.70;;
70199;SDS011;57587;55.688;37.600;2022-12-29T00:55:29;4.10;;;2.30;;
70199;SDS011;57587;55.688;37.600;2022-12-29T00:57:56;6.90;;;2.50;;
70199;SDS011;57587;55.688;37.600;2022-12-29T01:00:24;5.15;;;2.40;;
70199;SDS011;57587;55.688;37.600;2022-12-29T01:02:52;8.30;;;2.50;;
70199;SDS011;57587;55.688;37.600;2022-12-29T01:05:19;4.88;;;2.10;;
70199;SDS011;57587;55.688;37.600;2022-12-29T01:07:46;4.03;;;2.00;;
70199;SDS011;57587;55.688;37.600;2022-12-29T01:10:13;4.93;;;2.30;;
70199;SDS011;57587;55.688;37.600;2022-12-29T01:12:41;6.05;;;2.35;;
70199;SDS011;57587;55.688;37.600;2022-12-29T01:15:09;4.20;;;2.50;;
70199;SDS011;57587;55.688;37.600;2022-12-29T01:17:38;4.93;;;2.45;;
70199;SDS011;57587;55.688;37.600;2022-12-29T01:20:05;9.25;;;2.60;;
70199;SDS011;57587;55.688;37.600;2022-12-29T01:22:34;4.10;;;2.33;;
70199;SDS011;57587;55.688;37.600;2022-12-29T01:25:01;5.22;;;2.42;;
70199;SDS011;57587;55.688;37.600;2022-12-29T01:27:29;4.97;;;2.80;;
70199;SDS011;57587;55.688;37.600;2022-12-29T01:29:56;4.82;;;2.42;;
70199;SDS011;57587;55.688;37.600;2022-12-29T01:32:23;5.38;;;2.10;;
70199;SDS011;57587;55.688;37.600;2022-12-29T01:34:51;6.40;;;2.30;;
70199;SDS011;57587;55.688;37.600;2022-12-29T01:37:18;6.43;;;2.25;;
70199;SDS011;57587;55.688;37.600;2022-12-29T01:39:45;3.88;;;2.20;;
70199;SDS011;57587;55.688;37.600;2022-12-29T01:42:23;5.05;;;2.63;;
70199;SDS011;57587;55.688;37.600;2022-12-29T01:50:15;8.90;;;2.67;;
70199;SDS011;57587;55.688;37.600;2022-12-29T01:53:37;4.53;;;2.50;;
70199;SDS011;57587;55.688;37.600;2022-12-29T01:55:59;5.55;;;2.45;;
70199;SDS011;57587;55.688;37.600;2022-12-29T01:58:33;8.27;;;2.80;;
70199;SDS011;57587;55.688;37.600;2022-12-29T02:01:06;9.50;;;2.60;;
70199;SDS011;57587;55.688;37.600;2022-12-29T02:03:34;6.75;;;2.40;;
70199;SDS011;57587;55.688;37.600;2022-12-29T02:08:46;5.75;;;2.42;;
70199;SDS011;57587;55.688;37.600;2022-12-29T02:11:14;6.97;;;2.75;;
70199;SDS011;57587;55.688;37.600;2022-12-29T02:13:42;6.77;;;2.50;;
70199;SDS011;57587;55.688;37.600;2022-12-29T02:16:22;7.68;;;2.72;;
70199;SDS011;57587;55.688;37.600;2022-12-29T02:30:42;7.15;;;2.58;;
70199;SDS011;57587;55.688;37.600;2022-12-29T02:33:18;5.55;;;2.75;;
70199;SDS011;57587;55.688;37.600;2022-12-29T02:44:48;4.82;;;2.70;;
70199;SDS011;57587;55.688;37.600;2022-12-29T02:47:33;5.95;;;3.00;;
70199;SDS011;57587;55.688;37.600;2022-12-29T02:50:10;6.18;;;2.47;;
70199;SDS011;57587;55.688;37.600;2022-12-29T02:52:48;5.50;;;2.60;;
70199;SDS011;57587;55.688;37.600;2022-12-29T02:55:18;4.53;;;2.37;;
70199;SDS011;57587;55.688;37.600;2022-12-29T02:57:45;7.35;;;3.00;;
70199;SDS011;57587;55.688;37.600;2022-12-29T03:00:14;8.93;;;2.63;;
70199;SDS011;57587;55.688;37.600;2022-12-29T03:09:08;6.67;;;2.40;;
70199;SDS011;57587;55.688;37.600;2022-12-29T03:11:58;8.05;;;2.83;;
70199;SDS011;57587;55.688;37.600;2022-12-29T03:17:55;9.55;;;2.60;;
70199;SDS011;57587;55.688;37.600;2022-12-29T03:20:49;7.03;;;2.78;;
70199;SDS011;57587;55.688;37.600;2022-12-29T03:23:22;5.17;;;2.60;;
70199;SDS011;57587;55.688;37.600;2022-12-29T03:25:54;8.95;;;2.80;;
70199;SDS011;57587;55.688;37.600;2022-12-29T03:28:30;7.15;;;2.53;;
70199;SDS011;57587;55.688;37.600;2022-12-29T03:31:02;8.00;;;2.80;;
70199;SDS011;57587;55.688;37.600;2022-12-29T03:33:31;5.28;;;2.80;;
70199;SDS011;57587;55.688;37.600;2022-12-29T03:36:02;7.20;;;2.33;;
70199;SDS011;57587;55.688;37.600;2022-12-29T03:38:35;7.55;;;2.92;;
70199;SDS011;57587;55.688;37.600;2022-12-29T03:41:14;4.78;;;2.95;;
70199;SDS011;57587;55.688;37.600;2022-12-29T03:43:47;10.77;;;4.40;;
70199;SDS011;57587;55.688;37.600;2022-12-29T03:46:14;8.35;;;3.50;;
70199;SDS011;57587;55.688;37.600;2022-12-29T03:48:41;6.97;;;3.20;;
70199;SDS011;57587;55.688;37.600;2022-12-29T03:51:08;6.85;;;2.70;;
70199;SDS011;57587;55.688;37.600;2022-12-29T03:53:36;8.13;;;2.65;;
70199;SDS011;57587;55.688;37.600;2022-12-29T03:56:03;6.85;;;2.80;;
70199;SDS011;57587;55.688;37.600;2022-12-29T03:58:31;6.05;;;3.13;;
70199;SDS011;57587;55.688;37.600;2022-12-29T04:01:04;10.23;;;3.17;;
70199;SDS011;57587;55.688;37.600;2022-12-29T04:03:34;7.47;;;3.08;;
70199;SDS011;57587;55.688;37.600;2022-12-29T04:06:03;6.05;;;2.83;;
70199;SDS011;57587;55.688;37.600;2022-12-29T04:08:49;7.50;;;2.97;;
70199;SDS011;57587;55.688;37.600;2022-12-29T04:11:16;5.45;;;2.80;;
70199;SDS011;57587;55.688;37.600;2022-12-29T04:13:44;9.63;;;3.07;;
70199;SDS011;57587;55.688;37.600;2022-12-29T04:16:15;7.22;;;3.00;;
70199;SDS011;57587;55.688;37.600;2022-12-29T04:18:44;6.82;;;3.10;;
70199;SDS011;57587;55.688;37.600;2022-12-29T04:21:11;5.05;;;2.90;;
70199;SDS011;57587;55.688;37.600;2022-12-29T04:23:41;8.82;;;3.42;;
70199;SDS011;57587;55.688;37.600;2022-12-29T04:26:09;5.53;;;3.00;;
70199;SDS011;57587;55.688;37.600;2022-12-29T04:29:02;6.20;;;2.90;;
70199;SDS011;57587;55.688;37.600;2022-12-29T04:31:58;7.07;;;3.67;;
70199;SDS011;57587;55.688;37.600;2022-12-29T04:34:27;6.82;;;3.67;;
70199;SDS011;57587;55.688;37.600;2022-12-29T04:36:54;8.13;;;3.67;;
70199;SDS011;57587;55.688;37.600;2022-12-29T04:39:21;9.37;;;3.23;;
70199;SDS011;57587;55.688;37.600;2022-12-29T04:41:48;16.75;;;8.90;;
70199;SDS011;57587;55.688;37.600;2022-12-29T04:44:19;10.30;;;4.20;;
70199;SDS011;57587;55.688;37.600;2022-12-29T04:46:52;7.50;;;3.03;;
70199;SDS011;57587;55.688;37.600;2022-12-29T04:49:38;8.30;;;3.47;;
70199;SDS011;57587;55.688;37.600;2022-12-29T04:52:15;11.43;;;4.90;;
70199;SDS011;57587;55.688;37.600;2022-12-29T04:54:44;6.47;;;3.25;;
70199;SDS011;57587;55.688;37.600;2022-12-29T04:57:16;6.43;;;3.40;;
70199;SDS011;57587;55.688;37.600;2022-12-29T04:59:50;7.38;;;3.20;;
70199;SDS011;57587;55.688;37.600;2022-12-29T05:02:17;4.88;;;3.25;;
70199;SDS011;57587;55.688;37.600;2022-12-29T05:04:47;7.57;;;3.53;;
70199;SDS011;57587;55.688;37.600;2022-12-29T05:07:15;6.25;;;3.28;;
70199;SDS011;57587;55.688;37.600;2022-12-29T05:09:44;7.43;;;3.80;;
70199;SDS011;57587;55.688;37.600;2022-12-29T05:12:11;6.40;;;3.40;;
70199;SDS011;57587;55.688;37.600;2022-12-29T05:14:47;7.85;;;4.00;;
70199;SDS011;57587;55.688;37.600;2022-12-29T05:17:14;9.20;;;3.50;;
70199;SDS011;57587;55.688;37.600;2022-12-29T05:19:41;7.63;;;3.78;;
70199;SDS011;57587;55.688;37.600;2022-12-29T05:22:08;8.18;;;3.55;;
70199;SDS011;57587;55.688;37.600;2022-12-29T05:24:37;8.27;;;3.50;;
70199;SDS011;57587;55.688;37.600;2022-12-29T05:27:04;7.60;;;3.75;;
70199;SDS011;57587;55.688;37.600;2022-12-29T05:29:53;10.03;;;3.80;;
70199;SDS011;57587;55.688;37.600;2022-12-29T05:32:21;8.25;;;3.95;;
70199;SDS011;57587;55.688;37.600;2022-12-29T05:34:48;9.73;;;3.53;;
70199;SDS011;57587;55.688;37.600;2022-12-29T05:37:17;9.60;;;3.50;;
70199;SDS011;57587;55.688;37.600;2022-12-29T05:39:44;10.40;;;3.67;;
70199;SDS011;57587;55.688;37.600;2022-12-29T05:42:12;8.50;;;3.73;;
70199;SDS011;57587;55.688;37.600;2022-12-29T05:45:00;9.23;;;3.55;;
70199;SDS011;57587;55.688;37.600;2022-12-29T05:47:41;8.75;;;3.72;;
70199;SDS011;57587;55.688;37.600;2022-12-29T05:50:28;10.15;;;3.55;;
70199;SDS011;57587;55.688;37.600;2022-12-29T05:53:21;8.80;;;3.78;;
70199;SDS011;57587;55.688;37.600;2022-12-29T05:55:49;7.10;;;3.80;;
70199;SDS011;57587;55.688;37.600;2022-12-29T05:58:16;7.30;;;3.40;;
70199;SDS011;57587;55.688;37.600;2022-12-29T06:00:44;7.28;;;3.17;;
70199;SDS011;57587;55.688;37.600;2022-12-29T06:03:11;7.22;;;3.50;;
70199;SDS011;57587;55.688;37.600;2022-12-29T06:05:40;10.50;;;3.55;;
70199;SDS011;57587;55.688;37.600;2022-12-29T06:08:07;8.37;;;3.10;;
70199;SDS011;57587;55.688;37.600;2022-12-29T06:10:34;14.20;;;4.03;;
70199;SDS011;57587;55.688;37.600;2022-12-29T06:13:04;7.88;;;3.53;;
70199;SDS011;57587;55.688;37.600;2022-12-29T06:15:35;8.05;;;3.40;;
70199;SDS011;57587;55.688;37.600;2022-12-29T06:18:06;11.48;;;3.10;;
70199;SDS011;57587;55.688;37.600;2022-12-29T06:20:33;6.87;;;3.70;;
70199;SDS011;57587;55.688;37.600;2022-12-29T06:23:03;9.52;;;3.50;;
70199;SDS011;57587;55.688;37.600;2022-12-29T06:25:30;8.30;;;3.35;;
70199;SDS011;57587;55.688;37.600;2022-12-29T06:27:59;7.20;;;3.17;;
70199;SDS011;57587;55.688;37.600;2022-12-29T06:30:26;5.85;;;3.45;;
70199;SDS011;57587;55.688;37.600;2022-12-29T06:32:54;8.90;;;3.73;;
70199;SDS011;57587;55.688;37.600;2022-12-29T06:35:22;7.35;;;4.00;;
70199;SDS011;57587;55.688;37.600;2022-12-29T06:37:50;12.13;;;4.45;;
70199;SDS011;57587;55.688;37.600;2022-12-29T06:40:19;6.40;;;4.20;;
70199;SDS011;57587;55.688;37.600;2022-12-29T06:43:06;8.35;;;4.00;;
70199;SDS011;57587;55.688;37.600;2022-12-29T06:46:00;9.17;;;4.40;;
70199;SDS011;57587;55.688;37.600;2022-12-29T06:48:27;10.77;;;4.68;;
70199;SDS011;57587;55.688;37.600;2022-12-29T06:50:54;10.80;;;4.28;;
70199;SDS011;57587;55.688;37.600;2022-12-29T06:53:21;16.58;;;4.18;;
70199;SDS011;57587;55.688;37.600;2022-12-29T06:55:48;9.00;;;3.92;;
70199;SDS011;57587;55.688;37.600;2022-12-29T06:58:19;9.73;;;4.07;;
70199;SDS011;57587;55.688;37.600;2022-12-29T07:00:46;11.13;;;4.55;;
70199;SDS011;57587;55.688;37.600;2022-12-29T07:03:14;9.70;;;4.30;;
70199;SDS011;57587;55.688;37.600;2022-12-29T07:05:41;11.10;;;4.40;;
70199;SDS011;57587;55.688;37.600;2022-12-29T07:08:08;14.25;;;4.25;;
70199;SDS011;57587;55.688;37.600;2022-12-29T07:10:35;9.37;;;4.30;;
70199;SDS011;57587;55.688;37.600;2022-12-29T07:13:02;8.13;;;4.00;;
70199;SDS011;57587;55.688;37.600;2022-12-29T07:15:29;9.35;;;3.78;;
70199;SDS011;57587;55.688;37.600;2022-12-29T07:17:56;7.28;;;4.25;;
70199;SDS011;57587;55.688;37.600;2022-12-29T07:20:23;8.60;;;3.92;;
70199;SDS011;57587;55.688;37.600;2022-12-29T07:22:52;6.97;;;4.20;;
70199;SDS011;57587;55.688;37.600;2022-12-29T07:25:20;8.77;;;4.00;;
70199;SDS011;57587;55.688;37.600;2022-12-29T07:27:47;8.18;;;4.05;;
70199;SDS011;57587;55.688;37.600;2022-12-29T07:30:15;8.10;;;3.83;;
70199;SDS011;57587;55.688;37.600;2022-12-29T07:32:42;7.65;;;4.35;;
70199;SDS011;57587;55.688;37.600;2022-12-29T07:35:34;7.57;;;4.27;;
70199;SDS011;57587;55.688;37.600;2022-12-29T07:38:01;9.43;;;4.20;;
70199;SDS011;57587;55.688;37.600;2022-12-29T07:40:28;6.72;;;4.70;;
70199;SDS011;57587;55.688;37.600;2022-12-29T07:42:55;13.25;;;4.80;;
70199;SDS011;57587;55.688;37.600;2022-12-29T07:45:31;11.40;;;4.40;;
70199;SDS011;57587;55.688;37.600;2022-12-29T07:48:07;11.40;;;4.33;;
70199;SDS011;57587;55.688;37.600;2022-12-29T07:50:35;11.00;;;5.05;;
70199;SDS011;57587;55.688;37.600;2022-12-29T07:53:03;8.70;;;4.50;;
70199;SDS011;57587;55.688;37.600;2022-12-29T07:55:30;11.05;;;4.70;;
70199;SDS011;57587;55.688;37.600;2022-12-29T07:57:57;8.60;;;4.78;;
70199;SDS011;57587;55.688;37.600;2022-12-29T08:00:24;11.03;;;5.07;;
70199;SDS011;57587;55.688;37.600;2022-12-29T08:02:51;11.55;;;5.40;;
70199;SDS011;57587;55.688;37.600;2022-12-29T08:05:19;8.93;;;5.38;;
70199;SDS011;57587;55.688;37.600;2022-12-29T08:07:46;11.13;;;6.05;;
70199;SDS011;57587;55.688;37.600;2022-12-29T08:10:14;12.30;;;5.20;;
70199;SDS011;57587;55.688;37.600;2022-12-29T08:12:42;11.13;;;5.23;;
70199;SDS011;57587;55.688;37.600;2022-12-29T08:15:10;14.85;;;5.78;;
70199;SDS011;57587;55.688;37.600;2022-12-29T08:17:38;10.77;;;5.35;;
70199;SDS011;57587;55.688;37.600;2022-12-29T08:20:06;10.90;;;5.30;;
70199;SDS011;57587;55.688;37.600;2022-12-29T08:22:33;9.18;;;5.50;;
70199;SDS011;57587;55.688;37.600;2022-12-29T08:25:01;12.50;;;6.47;;
70199;SDS011;57587;55.688;37.600;2022-12-29T08:27:29;12.02;;;6.38;;
70199;SDS011;57587;55.688;37.600;2022-12-29T08:29:56;13.35;;;6.13;;
70199;SDS011;57587;55.688;37.600;2022-12-29T08:32:23;15.20;;;6.20;;
70199;SDS011;57587;55.688;37.600;2022-12-29T08:34:50;13.02;;;6.28;;
70199;SDS011;57587;55.688;37.600;2022-12-29T08:37:17;13.13;;;7.43;;
70199;SDS011;57587;55.688;37.600;2022-12-29T08:39:44;12.25;;;6.88;;
70199;SDS011;57587;55.688;37.600;2022-12-29T08:42:11;19.30;;;7.38;;
70199;SDS011;57587;55.688;37.600;2022-12-29T08:44:38;15.00;;;7.35;;
70199;SDS011;57587;55.688;37.600;2022-12-29T08:47:05;18.40;;;7.25;;
70199;SDS011;57587;55.688;37.600;2022-12-29T08:49:32;16.93;;;7.27;;
70199;SDS011;57587;55.688;37.600;2022-12-29T08:51:59;15.65;;;7.95;;
70199;SDS011;57587;55.688;37.600;2022-12-29T08:54:26;18.48;;;8.43;;
70199;SDS011;57587;55.688;37.600;2022-12-29T08:56:54;14.30;;;7.20;;
70199;SDS011;57587;55.688;37.600;2022-12-29T08:59:26;13.73;;;7.45;;
70199;SDS011;57587;55.688;37.600;2022-12-29T09:01:53;14.23;;;6.83;;
70199;SDS011;57587;55.688;37.600;2022-12-29T09:04:20;14.77;;;6.70;;
70199;SDS011;57587;55.688;37.600;2022-12-29T09:06:47;12.88;;;6.28;;
70199;SDS011;57587;55.688;37.600;2022-12-29T09:09:15;14.38;;;6.78;;
70199;SDS011;57587;55.688;37.600;2022-12-29T09:16:44;12.43;;;6.30;;
70199;SDS011;57587;55.688;37.600;2022-12-29T09:19:30;13.20;;;6.50;;
70199;SDS011;57587;55.688;37.600;2022-12-29T09:21:57;10.43;;;5.88;;
70199;SDS011;57587;55.688;37.600;2022-12-29T09:24:24;13.88;;;6.20;;
70199;SDS011;57587;55.688;37.600;2022-12-29T09:26:51;11.68;;;6.10;;
70199;SDS011;57587;55.688;37.600;2022-12-29T09:29:18;13.50;;;5.97;;
70199;SDS011;57587;55.688;37.600;2022-12-29T09:31:46;10.80;;;6.28;;
70199;SDS011;57587;55.688;37.600;2022-12-29T09:34:13;11.95;;;6.28;;
70199;SDS011;57587;55.688;37.600;2022-12-29T09:36:40;11.80;;;6.82;;
70199;SDS011;57587;55.688;37.600;2022-12-29T09:39:07;11.57;;;6.22;;
70199;SDS011;57587;55.688;37.600;2022-12-29T09:41:43;12.90;;;6.33;;
70199;SDS011;57587;55.688;37.600;2022-12-29T09:44:31;14.90;;;6.13;;
70199;SDS011;57587;55.688;37.600;2022-12-29T09:47:25;15.15;;;6.47;;
70199;SDS011;57587;55.688;37.600;2022-12-29T09:49:58;13.80;;;6.70;;
70199;SDS011;57587;55.688;37.600;2022-12-29T09:52:42;10.57;;;6.57;;
70199;SDS011;57587;55.688;37.600;2022-12-29T09:55:16;11.90;;;6.40;;
70199;SDS011;57587;55.688;37.600;2022-12-29T09:57:49;14.23;;;6.53;;
70199;SDS011;57587;55.688;37.600;2022-12-29T10:00:28;15.85;;;6.68;;
70199;SDS011;57587;55.688;37.600;2022-12-29T10:03:22;11.60;;;6.32;;
70199;SDS011;57587;55.688;37.600;2022-12-29T10:06:11;15.13;;;6.93;;
70199;SDS011;57587;55.688;37.600;2022-12-29T10:08:52;9.57;;;6.37;;
70199;SDS011;57587;55.688;37.600;2022-12-29T10:20:48;12.95;;;6.18;;
70199;SDS011;57587;55.688;37.600;2022-12-29T10:23:50;18.35;;;6.78;;
70199;SDS011;57587;55.688;37.600;2022-12-29T10:26:39;13.50;;;6.50;;
70199;SDS011;57587;55.688;37.600;2022-12-29T10:29:19;10.57;;;6.03;;
70199;SDS011;57587;55.688;37.600;2022-12-29T10:31:57;14.15;;;6.40;;
70199;SDS011;57587;55.688;37.600;2022-12-29T10:34:28;14.02;;;6.05;;
70199;SDS011;57587;55.688;37.600;2022-12-29T10:40:31;12.50;;;6.37;;
70199;SDS011;57587;55.688;37.600;2022-12-29T10:43:07;13.98;;;6.03;;
70199;SDS011;57587;55.688;37.600;2022-12-29T10:46:02;10.77;;;6.18;;
70199;SDS011;57587;55.688;37.600;2022-12-29T10:48:36;11.55;;;6.22;;
70199;SDS011;57587;55.688;37.600;2022-12-29T10:51:05;13.40;;;6.20;;
70199;SDS011;57587;55.688;37.600;2022-12-29T10:53:40;12.87;;;6.10;;
70199;SDS011;57587;55.688;37.600;2022-12-29T10:59:16;10.48;;;6.30;;
70199;SDS011;57587;55.688;37.600;2022-12-29T11:07:24;14.27;;;7.40;;
70199;SDS011;57587;55.688;37.600;2022-12-29T11:09:53;13.65;;;7.05;;
70199;SDS011;57587;55.688;37.600;2022-12-29T11:12:22;13.32;;;6.65;;
70199;SDS011;57587;55.688;37.600;2022-12-29T11:17:49;16.77;;;7.63;;
70199;SDS011;57587;55.688;37.600;2022-12-29T11:20:31;13.37;;;6.33;;
70199;SDS011;57587;55.688;37.600;2022-12-29T11:23:05;14.18;;;6.68;;
70199;SDS011;57587;55.688;37.600;2022-12-29T11:26:05;13.50;;;6.47;;
70199;SDS011;57587;55.688;37.600;2022-12-29T11:28:34;14.52;;;6.55;;
70199;SDS011;57587;55.688;37.600;2022-12-29T11:31:02;10.80;;;6.05;;
70199;SDS011;57587;55.688;37.600;2022-12-29T11:33:30;11.37;;;6.47;;
70199;SDS011;57587;55.688;37.600;2022-12-29T11:36:01;12.13;;;6.63;;
70199;SDS011;57587;55.688;37.600;2022-12-29T11:38:36;13.40;;;5.88;;
70199;SDS011;57587;55.688;37.600;2022-12-29T11:41:06;10.25;;;5.97;;
70199;SDS011;57587;55.688;37.600;2022-12-29T11:43:38;10.40;;;6.03;;
70199;SDS011;57587;55.688;37.600;2022-12-29T11:46:13;11.37;;;6.17;;
70199;SDS011;57587;55.688;37.600;2022-12-29T11:48:43;15.18;;;7.50;;
70199;SDS011;57587;55.688;37.600;2022-12-29T11:51:12;13.30;;;6.97;;
70199;SDS011;57587;55.688;37.600;2022-12-29T11:53:56;15.75;;;7.57;;
70199;SDS011;57587;55.688;37.600;2022-12-29T11:56:34;16.13;;;7.13;;
70199;SDS011;57587;55.688;37.600;2022-12-29T12:02:09;12.45;;;7.25;;
70199;SDS011;57587;55.688;37.600;2022-12-29T12:05:13;14.60;;;7.18;;
70199;SDS011;57587;55.688;37.600;2022-12-29T12:07:46;14.30;;;6.95;;
70199;SDS011;57587;55.688;37.600;2022-12-29T12:10:26;14.30;;;7.88;;
70199;SDS011;57587;55.688;37.600;2022-12-29T12:21:20;15.05;;;7.60;;
70199;SDS011;57587;55.688;37.600;2022-12-29T12:29:45;14.10;;;6.55;;
70199;SDS011;57587;55.688;37.600;2022-12-29T12:32:36;14.75;;;6.50;;
70199;SDS011;57587;55.688;37.600;2022-12-29T12:35:12;13.60;;;6.40;;
70199;SDS011;57587;55.688;37.600;2022-12-29T12:43:34;12.27;;;5.90;;
70199;SDS011;57587;55.688;37.600;2022-12-29T13:00:37;16.77;;;7.70;;
70199;SDS011;57587;55.688;37.600;2022-12-29T13:03:21;16.42;;;6.80;;
70199;SDS011;57587;55.688;37.600;2022-12-29T13:12:18;17.35;;;6.30;;
70199;SDS011;57587;55.688;37.600;2022-12-29T13:36:24;18.33;;;8.17;;
70199;SDS011;57587;55.688;37.600;2022-12-29T13:39:07;15.85;;;7.55;;
70199;SDS011;57587;55.688;37.600;2022-12-29T13:41:51;15.35;;;7.30;;
70199;SDS011;57587;55.688;37.600;2022-12-29T13:44:22;20.85;;;7.78;;
70199;SDS011;57587;55.688;37.600;2022-12-29T13:50:04;16.13;;;7.27;;
70199;SDS011;57587;55.688;37.600;2022-12-29T14:01:13;19.08;;;8.30;;
70199;SDS011;57587;55.688;37.600;2022-12-29T14:03:59;20.90;;;8.00;;
70199;SDS011;57587;55.688;37.600;2022-12-29T14:06:29;22.73;;;8.40;;
70199;SDS011;57587;55.688;37.600;2022-12-29T14:08:59;20.33;;;8.45;;
70199;SDS011;57587;55.688;37.600;2022-12-29T14:11:33;21.98;;;9.73;;
70199;SDS011;57587;55.688;37.600;2022-12-29T14:14:13;27.17;;;10.40;;
70199;SDS011;57587;55.688;37.600;2022-12-29T14:16:48;22.63;;;9.67;;
70199;SDS011;57587;55.688;37.600;2022-12-29T14:19:16;19.65;;;9.07;;
70199;SDS011;57587;55.688;37.600;2022-12-29T14:34:57;21.17;;;9.15;;
70199;SDS011;57587;55.688;37.600;2022-12-29T14:42:47;22.77;;;10.57;;
70199;SDS011;57587;55.688;37.600;2022-12-29T14:47:44;29.05;;;12.20;;
70199;SDS011;57587;55.688;37.600;2022-12-29T14:50:22;26.65;;;10.43;;
70199;SDS011;57587;55.688;37.600;2022-12-29T14:53:01;31.27;;;10.48;;
70199;SDS011;57587;55.688;37.600;2022-12-29T14:58:17;29.30;;;11.48;;
70199;SDS011;57587;55.688;37.600;2022-12-29T15:00:48;29.20;;;10.98;;
70199;SDS011;57587;55.688;37.600;2022-12-29T15:05:53;25.15;;;10.13;;
70199;SDS011;57587;55.688;37.600;2022-12-29T15:08:24;28.03;;;11.23;;
70199;SDS011;57587;55.688;37.600;2022-12-29T15:10:55;22.83;;;10.82;;
70199;SDS011;57587;55.688;37.600;2022-12-29T15:13:34;27.25;;;11.00;;
70199;SDS011;57587;55.688;37.600;2022-12-29T15:16:03;28.63;;;11.25;;
70199;SDS011;57587;55.688;37.600;2022-12-29T15:18:32;26.38;;;10.98;;
70199;SDS011;57587;55.688;37.600;2022-12-29T15:21:01;24.43;;;10.73;;
70199;SDS011;57587;55.688;37.600;2022-12-29T15:23:30;30.33;;;11.00;;
70199;SDS011;57587;55.688;37.600;2022-12-29T15:28:43;23.50;;;12.10;;
70199;SDS011;57587;55.688;37.600;2022-12-29T15:31:16;26.88;;;11.70;;
70199;SDS011;57587;55.688;37.600;2022-12-29T15:34:00;31.17;;;12.57;;
70199;SDS011;57587;55.688;37.600;2022-12-29T15:36:38;30.90;;;11.80;;
70199;SDS011;57587;55.688;37.600;2022-12-29T15:39:20;26.20;;;10.90;;
70199;SDS011;57587;55.688;37.600;2022-12-29T15:41:55;27.38;;;11.05;;
70199;SDS011;57587;55.688;37.600;2022-12-29T15:44:43;27.98;;;11.25;;
70199;SDS011;57587;55.688;37.600;2022-12-29T15:47:18;36.00;;;12.77;;
70199;SDS011;57587;55.688;37.600;2022-12-29T15:49:48;32.63;;;11.98;;
70199;SDS011;57587;55.688;37.600;2022-12-29T15:52:18;34.05;;;12.63;;
70199;SDS011;57587;55.688;37.600;2022-12-29T15:54:50;29.05;;;11.82;;
70199;SDS011;57587;55.688;37.600;2022-12-29T15:57:24;32.90;;;13.50;;
70199;SDS011;57587;55.688;37.600;2022-12-29T16:00:03;29.67;;;12.50;;
70199;SDS011;57587;55.688;37.600;2022-12-29T16:02:48;33.17;;;12.90;;
70199;SDS011;57587;55.688;37.600;2022-12-29T16:05:16;30.92;;;13.00;;
70199;SDS011;57587;55.688;37.600;2022-12-29T16:07:52;35.05;;;12.95;;
70199;SDS011;57587;55.688;37.600;2022-12-29T16:10:35;30.05;;;12.43;;
70199;SDS011;57587;55.688;37.600;2022-12-29T16:13:18;27.87;;;10.87;;
70199;SDS011;57587;55.688;37.600;2022-12-29T16:16:16;28.75;;;11.75;;
70199;SDS011;57587;55.688;37.600;2022-12-29T16:18:47;30.88;;;12.63;;
70199;SDS011;57587;55.688;37.600;2022-12-29T16:21:25;39.67;;;12.98;;
70199;SDS011;57587;55.688;37.600;2022-12-29T16:23:57;33.88;;;12.93;;
70199;SDS011;57587;55.688;37.600;2022-12-29T16:26:28;38.57;;;12.70;;
70199;SDS011;57587;55.688;37.600;2022-12-29T16:28:56;32.30;;;13.32;;
70199;SDS011;57587;55.688;37.600;2022-12-29T16:31:33;34.65;;;13.75;;
70199;SDS011;57587;55.688;37.600;2022-12-29T16:34:13;45.67;;;14.68;;
70199;SDS011;57587;55.688;37.600;2022-12-29T16:36:56;42.15;;;15.30;;
70199;SDS011;57587;55.688;37.600;2022-12-29T16:39:33;42.13;;;15.67;;
70199;SDS011;57587;55.688;37.600;2022-12-29T16:47:48;44.55;;;15.25;;
70199;SDS011;57587;55.688;37.600;2022-12-29T16:50:31;41.95;;;14.30;;
70199;SDS011;57587;55.688;37.600;2022-12-29T16:53:03;51.93;;;16.40;;
70199;SDS011;57587;55.688;37.600;2022-12-29T16:55:31;47.15;;;16.45;;
70199;SDS011;57587;55.688;37.600;2022-12-29T16:57:59;46.10;;;16.52;;
70199;SDS011;57587;55.688;37.600;2022-12-29T17:00:27;43.88;;;15.70;;
70199;SDS011;57587;55.688;37.600;2022-12-29T17:03:00;48.50;;;15.05;;
70199;SDS011;57587;55.688;37.600;2022-12-29T17:05:28;45.00;;;16.00;;
70199;SDS011;57587;55.688;37.600;2022-12-29T17:07:55;53.30;;;15.85;;
70199;SDS011;57587;55.688;37.600;2022-12-29T17:10:28;51.25;;;16.10;;
70199;SDS011;57587;55.688;37.600;2022-12-29T17:13:15;47.90;;;15.85;;
70199;SDS011;57587;55.688;37.600;2022-12-29T17:15:42;44.75;;;16.90;;
70199;SDS011;57587;55.688;37.600;2022-12-29T17:18:09;44.43;;;15.27;;
70199;SDS011;57587;55.688;37.600;2022-12-29T17:20:39;44.70;;;16.73;;
70199;SDS011;57587;55.688;37.600;2022-12-29T17:23:14;46.20;;;14.85;;
70199;SDS011;57587;55.688;37.600;2022-12-29T17:25:49;51.22;;;15.35;;
70199;SDS011;57587;55.688;37.600;2022-12-29T17:28:27;37.45;;;15.63;;
70199;SDS011;57587;55.688;37.600;2022-12-29T17:31:02;36.13;;;14.00;;
70199;SDS011;57587;55.688;37.600;2022-12-29T17:33:34;38.83;;;14.95;;
70199;SDS011;57587;55.688;37.600;2022-12-29T17:36:04;41.42;;;15.05;;
70199;SDS011;57587;55.688;37.600;2022-12-29T17:38:33;39.42;;;14.40;;
70199;SDS011;57587;55.688;37.600;2022-12-29T17:41:03;43.67;;;15.43;;
70199;SDS011;57587;55.688;37.600;2022-12-29T17:43:30;39.27;;;13.70;;
70199;SDS011;57587;55.688;37.600;2022-12-29T17:46:02;38.38;;;15.02;;
70199;SDS011;57587;55.688;37.600;2022-12-29T17:48:32;40.63;;;15.82;;
70199;SDS011;57587;55.688;37.600;2022-12-29T17:50:59;41.70;;;14.55;;
70199;SDS011;57587;55.688;37.600;2022-12-29T17:53:28;39.80;;;14.70;;
70199;SDS011;57587;55.688;37.600;2022-12-29T17:55:56;37.87;;;13.97;;